Time;durP1;ratioP1;P1;durP2;ratioP2;P2;SDS_P1;SDS_P2;PMS_P1;PMS_P2;Temp;Humidity;BMP_temperature;BMP_pressure;BME280_temperature;BME280_humidity;BME280_pressure;Samples;Min_cycle;Max_cycle;Signal;HPM_P1;HPM_P2
2023/08/11 00:01:50;;;;;;;21.30;6.20;;;24.00;93.30;;;;;;5093328;28;20043;-71
2023/08/11 00:04:54;;;;;;;15.27;6.57;;;24.10;93.40;;;;;;5092761;28;20503;-71
2023/08/11 00:07:58;;;;;;;13.50;6.43;;;24.10;93.00;;;;;;5092874;28;20402;-71
2023/08/11 00:11:01;;;;;;;22.38;6.95;;;24.10;93.20;;;;;;5093074;28;20111;-71
2023/08/11 00:14:06;;;;;;;19.92;6.35;;;24.10;93.30;;;;;;5092746;28;20438;-71
2023/08/11 00:17:10;;;;;;;18.77;6.93;;;24.00;93.30;;;;;;5092693;28;20039;-72
2023/08/11 00:20:14;;;;;;;17.00;7.45;;;24.00;93.40;;;;;;5092791;28;20506;-71
2023/08/11 00:23:18;;;;;;;15.40;6.38;;;24.10;93.00;;;;;;5092426;28;20063;-71
2023/08/11 00:26:22;;;;;;;18.40;6.30;;;24.00;93.40;;;;;;5092375;28;20043;-71
2023/08/11 00:29:26;;;;;;;19.85;6.47;;;24.00;93.10;;;;;;5092330;28;20059;-71
2023/08/11 00:32:31;;;;;;;13.60;6.78;;;23.90;93.10;;;;;;5091710;28;20047;-71
2023/08/11 00:35:34;;;;;;;15.65;7.15;;;23.90;93.30;;;;;;5092303;28;20059;-71
2023/08/11 00:38:38;;;;;;;19.73;7.18;;;23.80;93.60;;;;;;5092106;28;20046;-71
2023/08/11 00:41:42;;;;;;;15.02;7.13;;;23.80;93.80;;;;;;5092400;28;20035;-71
2023/08/11 00:44:46;;;;;;;19.85;6.95;;;23.70;93.90;;;;;;5092148;28;20051;-71
2023/08/11 00:47:50;;;;;;;16.98;7.18;;;23.60;93.90;;;;;;5091454;28;20412;-71
2023/08/11 00:50:57;;;;;;;16.52;7.75;;;23.60;94.10;;;;;;5090925;28;20058;-71
2023/08/11 00:54:06;;;;;;;17.55;7.70;;;23.60;94.00;;;;;;5091378;28;20054;-71
2023/08/11 00:57:10;;;;;;;21.45;7.82;;;23.50;94.30;;;;;;5091089;28;20047;-71
2023/08/11 01:00:15;;;;;;;24.70;7.43;;;23.40;94.50;;;;;;5092111;28;20051;-71
2023/08/11 01:03:19;;;;;;;26.10;7.55;;;23.40;94.60;;;;;;5090659;28;20047;-71
2023/08/11 01:06:55;;;;;;;16.00;8.02;;;23.40;94.70;;;;;;5091869;28;20515;-71
2023/08/11 01:10:03;;;;;;;15.07;7.97;;;24.70;94.60;;;;;;5091881;28;20031;-71
2023/08/11 01:13:10;;;;;;;17.65;7.88;;;23.50;94.30;;;;;;5091836;28;20059;-71
2023/08/11 01:16:17;;;;;;;15.55;7.00;;;23.90;94.20;;;;;;5091609;28;20244;-72
2023/08/11 01:19:31;;;;;;;16.50;7.70;;;23.40;94.30;;;;;;5091175;28;20043;-71
2023/08/11 01:22:36;;;;;;;20.77;9.13;;;23.40;94.00;;;;;;5092404;28;20043;-72
2023/08/11 01:25:40;;;;;;;17.65;8.00;;;23.50;94.30;;;;;;5091530;28;20039;-71
2023/08/11 01:28:44;;;;;;;18.20;7.75;;;23.40;94.50;;;;;;5091759;28;20523;-71
2023/08/11 01:31:47;;;;;;;15.85;7.13;;;24.00;94.70;;;;;;5091625;28;20043;-71
2023/08/11 01:34:51;;;;;;;26.35;6.90;;;23.10;94.30;;;;;;5091216;28;20055;-71
2023/08/11 01:37:55;;;;;;;15.82;7.15;;;23.20;94.50;;;;;;5091240;28;20047;-71
2023/08/11 01:41:00;;;;;;;13.70;6.65;;;23.20;94.50;;;;;;5091411;28;20047;-71
2023/08/11 01:44:08;;;;;;;19.17;6.95;;;23.10;94.70;;;;;;5091426;28;20043;-71
2023/08/11 01:47:12;;;;;;;15.13;6.80;;;23.10;94.90;;;;;;5091278;28;20039;-71
2023/08/11 01:50:18;;;;;;;19.48;7.32;;;23.10;94.80;;;;;;5090408;28;20043;-71
2023/08/11 01:53:22;;;;;;;16.63;7.22;;;23.00;94.60;;;;;;5089895;28;20051;-71
2023/08/11 01:56:27;;;;;;;13.15;7.07;;;23.10;94.90;;;;;;5090229;28;20075;-71
2023/08/11 01:59:32;;;;;;;19.00;6.68;;;23.10;94.60;;;;;;5090402;28;20047;-71
2023/08/11 02:02:37;;;;;;;14.52;6.30;;;22.50;94.50;;;;;;5090111;28;20399;-71
2023/08/11 02:05:41;;;;;;;12.15;6.35;;;22.90;94.80;;;;;;5091044;28;20289;-71
2023/08/11 02:08:46;;;;;;;15.85;6.57;;;22.50;95.10;;;;;;5091100;28;20051;-70
2023/08/11 02:11:50;;;;;;;17.52;6.50;;;22.70;94.90;;;;;;5090865;28;20463;-71
2023/08/11 02:14:54;;;;;;;16.52;6.72;;;22.50;94.80;;;;;;5088837;28;20431;-71
2023/08/11 02:17:58;;;;;;;16.20;6.07;;;22.50;95.00;;;;;;5091089;28;20119;-71
2023/08/11 02:21:02;;;;;;;14.00;5.85;;;22.50;94.90;;;;;;5090009;28;20507;-71
2023/08/11 02:24:06;;;;;;;23.70;6.63;;;22.60;95.00;;;;;;5090212;28;20051;-71
2023/08/11 02:27:09;;;;;;;12.63;6.40;;;22.70;94.20;;;;;;5090520;28;20059;-70
2023/08/11 02:30:14;;;;;;;13.95;5.82;;;22.80;94.30;;;;;;5090618;28;20043;-70
2023/08/11 02:33:18;;;;;;;13.93;6.63;;;22.70;94.50;;;;;;5090600;28;20043;-70
2023/08/11 02:36:23;;;;;;;12.68;5.38;;;22.80;93.80;;;;;;5089773;28;20114;-69
2023/08/11 02:39:27;;;;;;;14.30;6.00;;;22.80;94.00;;;;;;5090829;28;20039;-70
2023/08/11 02:42:31;;;;;;;11.32;5.60;;;22.70;94.10;;;;;;5090814;28;20055;-70
2023/08/11 02:45:35;;;;;;;16.17;6.43;;;24.30;94.30;;;;;;5089777;28;20110;-70
2023/08/11 02:48:40;;;;;;;12.23;6.07;;;22.60;94.10;;;;;;5090836;28;20047;-70
2023/08/11 02:51:45;;;;;;;14.68;5.38;;;23.40;94.00;;;;;;5091062;28;20384;-70
2023/08/11 02:54:49;;;;;;;20.40;6.10;;;22.60;94.00;;;;;;5089542;28;20526;-70
2023/08/11 02:57:53;;;;;;;10.13;5.20;;;21.90;93.40;;;;;;5090377;28;20043;-70
2023/08/11 03:00:57;;;;;;;15.07;5.65;;;21.90;93.40;;;;;;5090431;28;20047;-70
2023/08/11 03:04:01;;;;;;;12.57;6.10;;;22.00;93.50;;;;;;5089673;28;20519;-70
2023/08/11 03:07:05;;;;;;;9.73;5.50;;;23.50;93.80;;;;;;5089854;28;20375;-70
2023/08/11 03:10:10;;;;;;;10.40;5.95;;;22.50;93.60;;;;;;5089439;28;20044;-70
2023/08/11 03:13:16;;;;;;;13.80;5.57;;;22.50;93.70;;;;;;5089551;28;20045;-70
2023/08/11 03:16:20;;;;;;;10.30;5.57;;;22.80;93.70;;;;;;5090069;28;20047;-70
2023/08/11 03:19:25;;;;;;;13.20;6.03;;;22.60;93.80;;;;;;5089453;28;20059;-70
2023/08/11 03:22:28;;;;;;;10.45;5.20;;;22.40;93.70;;;;;;5089156;28;20047;-70
2023/08/11 03:25:33;;;;;;;11.85;5.85;;;22.40;94.20;;;;;;5089679;28;20047;-69
2023/08/11 03:28:37;;;;;;;15.73;5.63;;;22.30;94.00;;;;;;5093538;28;20051;-72
2023/08/11 03:31:41;;;;;;;11.63;5.97;;;22.20;94.20;;;;;;5092960;28;20039;-70
2023/08/11 03:34:46;;;;;;;12.20;5.55;;;22.30;94.30;;;;;;5092459;28;20051;-70
2023/08/11 03:37:50;;;;;;;11.68;5.88;;;22.30;93.80;;;;;;5092953;28;20075;-70
2023/08/11 03:41:12;;;;;;;10.00;5.15;;;21.60;93.50;;;;;;5093035;28;20035;-71
2023/08/11 03:44:16;;;;;;;9.13;5.50;;;22.30;93.60;;;;;;5093571;28;20043;-71
2023/08/11 03:47:22;;;;;;;15.20;5.68;;;22.30;93.70;;;;;;5092529;28;20055;-71
2023/08/11 03:50:26;;;;;;;10.25;5.38;;;22.30;93.80;;;;;;5092517;28;20043;-71
2023/08/11 03:53:31;;;;;;;13.38;5.93;;;22.20;93.90;;;;;;5093515;28;20066;-71
2023/08/11 03:56:35;;;;;;;14.05;5.90;;;22.20;94.10;;;;;;5092348;28;20055;-71
2023/08/11 03:59:40;;;;;;;13.55;6.30;;;22.00;94.30;;;;;;5092324;28;20035;-70
2023/08/11 04:02:44;;;;;;;15.63;6.03;;;22.10;94.30;;;;;;5092488;28;20379;-71
2023/08/11 04:05:51;;;;;;;18.58;6.40;;;22.00;94.50;;;;;;5091900;28;20051;-71
2023/08/11 04:08:55;;;;;;;18.83;6.65;;;22.10;94.70;;;;;;5092156;28;20051;-71
2023/08/11 04:11:59;;;;;;;13.95;6.07;;;22.40;94.90;;;;;;5092118;28;20039;-71
2023/08/11 04:15:05;;;;;;;15.68;6.47;;;22.00;94.90;;;;;;5091601;28;20067;-71
2023/08/11 04:18:08;;;;;;;17.20;7.05;;;21.40;94.80;;;;;;5091859;28;20039;-71
2023/08/11 04:21:12;;;;;;;17.88;6.57;;;21.90;95.10;;;;;;5092010;28;20427;-71
2023/08/11 04:24:17;;;;;;;16.98;6.72;;;21.90;95.20;;;;;;5091870;28;20043;-71
2023/08/11 04:27:21;;;;;;;12.25;5.75;;;20.30;94.50;;;;;;5092573;28;20198;-71
2023/08/11 04:30:25;;;;;;;13.35;6.50;;;21.90;95.00;;;;;;5092608;28;20514;-71
2023/08/11 04:33:30;;;;;;;21.35;6.95;;;21.90;95.10;;;;;;5091492;28;20043;-71
2023/08/11 04:36:34;;;;;;;15.25;6.10;;;21.90;95.30;;;;;;5091717;28;20067;-71
2023/08/11 04:39:40;;;;;;;16.02;6.55;;;21.90;95.10;;;;;;5091780;28;20047;-71
2023/08/11 04:42:46;;;;;;;16.10;6.30;;;21.90;95.30;;;;;;5091744;28;20039;-71
2023/08/11 04:45:54;;;;;;;18.20;6.40;;;22.10;94.70;;;;;;5091700;28;20047;-71
2023/08/11 04:48:59;;;;;;;16.05;5.45;;;22.20;95.00;;;;;;5091496;28;20062;-71
2023/08/11 04:52:03;;;;;;;14.77;5.75;;;22.80;94.20;;;;;;5092181;28;20047;-71
2023/08/11 04:55:07;;;;;;;12.27;5.90;;;23.00;94.10;;;;;;5090826;28;20411;-71
2023/08/11 04:58:13;;;;;;;15.45;5.97;;;24.60;91.30;;;;;;5092102;28;20518;-71
2023/08/11 05:01:17;;;;;;;12.45;5.78;;;25.00;90.60;;;;;;5091993;28;20062;-71
2023/08/11 05:04:21;;;;;;;13.73;6.53;;;26.20;87.40;;;;;;5091864;28;20123;-71
2023/08/11 05:07:25;;;;;;;11.15;6.80;;;27.30;81.80;;;;;;5092188;28;20047;-71
2023/08/11 05:10:29;;;;;;;13.75;8.75;;;28.10;81.40;;;;;;5092103;28;20530;-71
2023/08/11 05:13:33;;;;;;;21.80;13.82;;;28.30;80.00;;;;;;5091983;28;20047;-71
2023/08/11 05:16:37;;;;;;;14.30;7.75;;;28.50;80.60;;;;;;5091993;28;20050;-71
2023/08/11 05:19:41;;;;;;;19.63;6.95;;;29.30;79.10;;;;;;5091886;28;20551;-71
2023/08/11 05:22:47;;;;;;;16.80;6.55;;;29.80;79.20;;;;;;5091837;28;20316;-71
2023/08/11 05:25:52;;;;;;;16.45;7.07;;;29.40;79.20;;;;;;5091282;28;20043;-71
2023/08/11 05:28:56;;;;;;;26.33;7.60;;;29.30;80.10;;;;;;5091605;28;20047;-71
2023/08/11 05:32:00;;;;;;;31.15;7.63;;;29.10;80.40;;;;;;5091366;28;20047;-75
2023/08/11 05:35:04;;;;;;;15.35;7.53;;;28.60;80.90;;;;;;5090239;28;20098;-74
2023/08/11 05:38:08;;;;;;;16.38;7.28;;;28.20;81.60;;;;;;5091561;28;20385;-75
2023/08/11 05:41:12;;;;;;;38.55;8.38;;;27.70;83.30;;;;;;5091567;28;20039;-75
2023/08/11 05:44:16;;;;;;;19.58;7.55;;;27.50;84.40;;;;;;5091374;28;20051;-75
2023/08/11 05:47:20;;;;;;;21.58;7.50;;;27.40;84.40;;;;;;5091145;28;20039;-75
2023/08/11 05:50:24;;;;;;;20.83;8.50;;;27.10;85.50;;;;;;5090406;28;20078;-75
2023/08/11 05:53:28;;;;;;;23.35;8.65;;;27.20;86.10;;;;;;5091366;28;20047;-75
2023/08/11 05:56:32;;;;;;;26.05;9.45;;;27.20;86.60;;;;;;5091195;28;20047;-76
2023/08/11 05:59:36;;;;;;;24.00;8.63;;;27.00;87.50;;;;;;5091378;28;20054;-75
2023/08/11 06:02:40;;;;;;;31.08;8.77;;;27.20;87.80;;;;;;5091381;28;20039;-76
2023/08/11 06:05:44;;;;;;;34.78;8.95;;;27.30;87.40;;;;;;5090789;28;20044;-76
2023/08/11 06:08:48;;;;;;;27.52;7.80;;;27.50;87.20;;;;;;5090689;28;20050;-75
2023/08/11 06:11:52;;;;;;;22.38;8.32;;;27.70;87.00;;;;;;5091131;28;20070;-74
2023/08/11 06:14:56;;;;;;;34.15;8.65;;;27.80;87.40;;;;;;5090963;28;20217;-75
2023/08/11 06:18:00;;;;;;;21.88;8.50;;;27.90;87.10;;;;;;5091007;28;20387;-76
2023/08/11 06:21:05;;;;;;;27.17;8.20;;;28.10;86.40;;;;;;5090271;28;20047;-74
2023/08/11 06:24:08;;;;;;;19.05;8.32;;;28.20;86.10;;;;;;5090972;28;20403;-76
2023/08/11 06:27:13;;;;;;;16.20;7.22;;;28.20;85.60;;;;;;5090624;28;20515;-76
2023/08/11 06:30:17;;;;;;;15.43;6.78;;;28.40;85.30;;;;;;5090635;28;20110;-74
2023/08/11 06:33:21;;;;;;;19.30;6.75;;;28.40;83.50;;;;;;5089675;28;20043;-74
2023/08/11 06:36:24;;;;;;;18.67;5.80;;;28.50;83.00;;;;;;5091166;28;20047;-74
2023/08/11 06:39:28;;;;;;;28.27;7.57;;;28.70;82.60;;;;;;5090899;28;20039;-78
2023/08/11 06:42:32;;;;;;;11.85;6.05;;;28.80;81.20;;;;;;5090815;28;20452;-74
2023/08/11 06:45:45;;;;;;;15.13;6.80;;;29.10;81.10;;;;;;5090018;28;20050;-76
2023/08/11 06:48:49;;;;;;;21.52;6.35;;;29.40;80.70;;;;;;5091020;28;20043;-75
2023/08/11 06:51:53;;;;;;;14.80;7.28;;;29.60;80.50;;;;;;5091065;28;20051;-77
2023/08/11 06:54:57;;;;;;;28.23;8.68;;;29.90;78.90;;;;;;5090784;28;20085;-73
2023/08/11 06:58:01;;;;;;;29.70;8.60;;;29.80;79.30;;;;;;5092382;28;20043;-74
2023/08/11 07:01:05;;;;;;;19.90;8.52;;;29.80;77.80;;;;;;5092574;28;20648;-75
2023/08/11 07:04:09;;;;;;;18.38;7.57;;;29.90;77.70;;;;;;5095144;28;20047;-76
2023/08/11 07:07:13;;;;;;;21.88;7.25;;;30.10;77.20;;;;;;5094714;28;20150;-76
2023/08/11 07:10:17;;;;;;;20.88;7.60;;;30.50;77.10;;;;;;5094696;28;20043;-74
2023/08/11 07:13:20;;;;;;;17.95;6.72;;;30.60;76.40;;;;;;5094454;28;20064;-73
2023/08/11 07:16:25;;;;;;;22.20;5.85;;;30.80;75.30;;;;;;5094367;28;20055;-72
2023/08/11 07:19:29;;;;;;;12.90;5.38;;;31.00;74.90;;;;;;5093997;28;20065;-72
2023/08/11 07:22:33;;;;;;;14.88;5.90;;;31.40;74.20;;;;;;5093891;28;20047;-72
2023/08/11 07:25:36;;;;;;;15.90;5.20;;;31.60;73.90;;;;;;5093770;28;20047;-73
2023/08/11 07:28:40;;;;;;;9.25;5.13;;;31.50;73.30;;;;;;5094044;28;20353;-72
2023/08/11 07:31:44;;;;;;;22.17;5.82;;;31.60;72.80;;;;;;5094166;28;20039;-77
2023/08/11 07:34:48;;;;;;;15.55;7.00;;;31.50;72.40;;;;;;5094340;28;20062;-78
2023/08/11 07:37:52;;;;;;;23.90;8.10;;;31.60;72.30;;;;;;5081833;28;20035;-79
2023/08/11 07:40:56;;;;;;;33.17;9.50;;;31.70;72.50;;;;;;5093744;28;20067;-74
2023/08/11 07:44:00;;;;;;;20.05;7.10;;;31.70;71.90;;;;;;5092528;28;20039;-73
2023/08/11 07:47:04;;;;;;;23.30;6.07;;;31.90;71.00;;;;;;5093638;28;20039;-73
2023/08/11 07:50:08;;;;;;;19.40;5.10;;;32.10;70.20;;;;;;5093574;28;20050;-80
2023/08/11 07:53:12;;;;;;;23.55;7.85;;;32.30;69.50;;;;;;5093753;28;20039;-73
2023/08/11 07:56:16;;;;;;;19.75;6.20;;;32.40;69.70;;;;;;5092887;28;20055;-71
2023/08/11 07:59:20;;;;;;;20.40;5.78;;;32.50;69.70;;;;;;5093591;28;20035;-73
2023/08/11 08:02:32;;;;;;;14.27;5.68;;;32.70;69.60;;;;;;5093484;28;20054;-75
2023/08/11 08:05:36;;;;;;;25.13;6.18;;;32.70;69.50;;;;;;5093530;28;20039;-76
2023/08/11 08:08:40;;;;;;;11.52;5.07;;;32.80;69.20;;;;;;5094120;28;20043;-76
2023/08/11 08:11:45;;;;;;;11.45;4.45;;;32.80;68.80;;;;;;5092599;28;20043;-75
2023/08/11 08:14:49;;;;;;;10.57;4.35;;;32.80;66.80;;;;;;5093139;28;20063;-70
2023/08/11 08:17:53;;;;;;;9.25;4.05;;;32.60;66.60;;;;;;5093217;28;20051;-71
2023/08/11 08:20:56;;;;;;;8.68;3.78;;;32.60;66.50;;;;;;5093355;28;20051;-71
2023/08/11 08:24:04;;;;;;;12.77;3.65;;;32.80;65.60;;;;;;5093404;28;20039;-71
2023/08/11 08:27:09;;;;;;;11.27;3.90;;;32.70;64.90;;;;;;5092435;28;20099;-70
2023/08/11 08:30:13;;;;;;;16.67;3.60;;;32.60;64.70;;;;;;5092687;28;20055;-69
2023/08/11 08:33:17;;;;;;;10.05;3.33;;;32.40;65.30;;;;;;5092581;28;20043;-68
2023/08/11 08:36:21;;;;;;;13.07;2.70;;;32.30;64.60;;;;;;5092365;28;20059;-71
2023/08/11 08:39:26;;;;;;;10.40;2.88;;;32.20;61.10;;;;;;5092942;28;20051;-76
2023/08/11 08:42:30;;;;;;;8.57;2.55;;;31.90;59.70;;;;;;5092603;28;20075;-74
2023/08/11 08:45:36;;;;;;;8.75;2.60;;;31.80;59.90;;;;;;5090851;28;20051;-76
2023/08/11 08:48:47;;;;;;;11.18;2.97;;;31.90;59.80;;;;;;5090603;28;20047;-77
2023/08/11 08:51:52;;;;;;;9.27;3.13;;;31.90;60.00;;;;;;5089503;28;20071;-77
2023/08/11 08:54:57;;;;;;;11.77;3.22;;;32.00;60.10;;;;;;5090353;28;20104;-76
2023/08/11 08:58:01;;;;;;;22.15;3.40;;;32.00;59.30;;;;;;5089732;28;20059;-76
2023/08/11 09:01:07;;;;;;;7.43;2.78;;;31.90;58.80;;;;;;5090800;28;20055;-76
2023/08/11 09:04:11;;;;;;;8.07;2.80;;;31.80;58.70;;;;;;5091392;28;20047;-76
2023/08/11 09:07:17;;;;;;;17.05;3.10;;;31.80;59.30;;;;;;5091819;28;20411;-75
2023/08/11 09:10:22;;;;;;;8.07;2.10;;;31.90;57.40;;;;;;5091517;28;20047;-74
2023/08/11 09:13:26;;;;;;;3.67;1.92;;;32.00;56.60;;;;;;5091729;28;20062;-74
2023/08/11 09:16:34;;;;;;;4.65;1.90;;;32.10;56.50;;;;;;5091547;28;20055;-74
2023/08/11 09:19:43;;;;;;;5.70;2.22;;;32.00;55.40;;;;;;5091530;28;20507;-74
2023/08/11 09:22:49;;;;;;;5.57;2.10;;;32.00;55.50;;;;;;5091697;28;20043;-75
2023/08/11 09:25:54;;;;;;;7.25;2.08;;;31.70;55.30;;;;;;5091268;28;20388;-76
2023/08/11 09:28:59;;;;;;;5.22;2.20;;;31.60;56.30;;;;;;5091649;28;20058;-75
2023/08/11 09:32:04;;;;;;;4.68;2.10;;;31.70;56.50;;;;;;5091297;28;20198;-75
2023/08/11 09:35:09;;;;;;;7.00;1.90;;;31.70;56.70;;;;;;5091454;28;20059;-75
2023/08/11 09:38:13;;;;;;;15.07;2.10;;;31.80;55.10;;;;;;5091699;28;20039;-75
2023/08/11 09:41:17;;;;;;;7.97;1.88;;;31.80;55.20;;;;;;5091637;28;20379;-74
2023/08/11 09:44:21;;;;;;;5.32;2.05;;;31.80;55.90;;;;;;5091340;28;20044;-72
2023/08/11 09:47:28;;;;;;;4.88;2.20;;;32.00;55.60;;;;;;5091614;28;20055;-74
2023/08/11 09:50:35;;;;;;;6.40;2.38;;;32.10;56.00;;;;;;5091243;28;20427;-74
2023/08/11 09:53:44;;;;;;;38.10;4.80;;;32.20;56.30;;;;;;5091280;28;20066;-74
2023/08/11 09:56:49;;;;;;;6.18;2.45;;;32.10;56.10;;;;;;5091084;28;20404;-75
2023/08/11 09:59:55;;;;;;;8.27;2.58;;;32.00;55.30;;;;;;5091445;28;20114;-75
2023/08/11 10:03:06;;;;;;;3.00;2.13;;;32.10;54.30;;;;;;5090937;28;20063;-75
2023/08/11 10:06:16;;;;;;;4.35;2.40;;;32.20;53.90;;;;;;5090813;28;20047;-76
2023/08/11 10:09:23;;;;;;;17.38;2.50;;;32.30;52.50;;;;;;5091035;28;20067;-75
2023/08/11 10:12:28;;;;;;;4.85;2.03;;;32.20;52.80;;;;;;5091049;28;20395;-76
2023/08/11 10:15:33;;;;;;;5.28;2.40;;;32.10;52.80;;;;;;5090592;28;20051;-74
2023/08/11 10:18:38;;;;;;;2.45;2.05;;;32.20;53.70;;;;;;5090462;28;20415;-76
2023/08/11 10:21:42;;;;;;;3.17;2.05;;;32.20;52.80;;;;;;5090856;28;20063;-75
2023/08/11 10:24:47;;;;;;;4.65;1.95;;;32.30;54.00;;;;;;5090634;28;20043;-76
2023/08/11 10:27:53;;;;;;;9.23;2.47;;;32.30;53.60;;;;;;5089780;28;20067;-76
2023/08/11 10:30:58;;;;;;;8.85;2.05;;;32.10;54.10;;;;;;5090749;28;20043;-76
2023/08/11 10:34:06;;;;;;;4.80;1.58;;;32.20;53.40;;;;;;5090505;28;20403;-75
2023/08/11 10:37:10;;;;;;;6.53;2.20;;;32.10;52.60;;;;;;5094409;28;20054;-76
2023/08/11 10:40:14;;;;;;;11.52;2.20;;;32.10;53.30;;;;;;5094672;28;20047;-74
2023/08/11 10:43:31;;;;;;;22.00;2.45;;;32.20;52.90;;;;;;5094764;28;20396;-75
2023/08/11 10:46:35;;;;;;;8.77;2.13;;;32.30;52.90;;;;;;5094601;28;20047;-75
2023/08/11 10:49:42;;;;;;;2.83;1.80;;;32.30;52.30;;;;;;5095018;28;20054;-75
2023/08/11 10:52:54;;;;;;;6.75;1.80;;;32.20;52.00;;;;;;5094450;28;20071;-76
2023/08/11 10:56:02;;;;;;;3.10;2.10;;;32.00;52.70;;;;;;5093525;28;20055;-74
2023/08/11 10:59:13;;;;;;;4.53;2.00;;;32.10;54.30;;;;;;5094439;28;20043;-75
2023/08/11 11:02:20;;;;;;;4.15;2.60;;;32.20;54.00;;;;;;5094439;28;20499;-76
2023/08/11 11:05:23;;;;;;;8.10;2.42;;;32.10;52.30;;;;;;5093362;28;20507;-76
2023/08/11 11:08:27;;;;;;;5.40;1.98;;;31.90;52.30;;;;;;5094607;28;20054;-74
2023/08/11 11:11:32;;;;;;;4.80;2.47;;;31.70;52.80;;;;;;5094606;28;20115;-76
2023/08/11 11:14:36;;;;;;;6.65;2.53;;;31.70;53.80;;;;;;5094006;28;20051;-75
2023/08/11 11:17:40;;;;;;;4.95;2.22;;;31.70;54.80;;;;;;5094045;28;20055;-76
2023/08/11 11:20:44;;;;;;;4.65;1.98;;;31.50;55.20;;;;;;5094309;28;20052;-76
2023/08/11 11:23:50;;;;;;;7.43;4.32;;;31.60;55.30;;;;;;5094110;28;20054;-76
2023/08/11 11:26:54;;;;;;;13.43;7.10;;;31.70;54.90;;;;;;5093826;28;20062;-76
2023/08/11 11:29:59;;;;;;;4.78;2.10;;;31.70;54.90;;;;;;5093938;28;20196;-76
2023/08/11 11:33:03;;;;;;;4.65;1.83;;;31.80;54.30;;;;;;5093616;28;20054;-76
2023/08/11 11:36:07;;;;;;;19.25;2.95;;;31.70;54.40;;;;;;5093869;28;20210;-75
2023/08/11 11:39:10;;;;;;;5.43;2.30;;;31.90;55.90;;;;;;5094102;28;20094;-75
2023/08/11 11:42:15;;;;;;;7.13;2.35;;;31.90;55.00;;;;;;5093591;28;20107;-76
2023/08/11 11:45:20;;;;;;;10.05;2.90;;;31.80;52.80;;;;;;5092680;28;20510;-76
2023/08/11 11:48:24;;;;;;;12.68;2.55;;;31.80;53.90;;;;;;5093709;28;20055;-75
2023/08/11 11:51:30;;;;;;;5.80;2.28;;;31.80;55.20;;;;;;5093733;28;20054;-75
2023/08/11 11:54:34;;;;;;;4.03;1.80;;;32.30;53.90;;;;;;5093467;28;20052;-74
2023/08/11 11:57:38;;;;;;;8.35;2.17;;;33.20;52.30;;;;;;5093495;28;20055;-74
2023/08/11 12:00:46;;;;;;;14.57;2.83;;;34.40;51.10;;;;;;5093791;28;20051;-76
2023/08/11 12:03:50;;;;;;;2.75;2.25;;;35.00;51.00;;;;;;5092332;28;20066;-75
2023/08/11 12:06:54;;;;;;;4.80;2.20;;;35.30;49.50;;;;;;5093308;28;20043;-75
2023/08/11 12:09:58;;;;;;;4.03;2.03;;;35.60;50.00;;;;;;5093053;28;20063;-75
2023/08/11 12:13:03;;;;;;;9.43;2.25;;;35.70;50.40;;;;;;5093243;28;20102;-74
2023/08/11 12:16:08;;;;;;;6.45;1.98;;;36.40;49.90;;;;;;5092923;28;20440;-74
2023/08/11 12:19:14;;;;;;;9.93;2.58;;;36.80;49.10;;;;;;5093258;28;20495;-75
2023/08/11 12:22:18;;;;;;;4.65;2.10;;;36.80;48.80;;;;;;5092937;28;20043;-75
2023/08/11 12:25:22;;;;;;;6.22;2.42;;;37.00;49.00;;;;;;5093268;28;20043;-75
2023/08/11 12:28:27;;;;;;;4.88;2.08;;;35.80;48.60;;;;;;5091826;28;20075;-76
2023/08/11 12:31:31;;;;;;;3.75;2.13;;;35.70;49.20;;;;;;5091915;28;20043;-75
2023/08/11 12:34:35;;;;;;;3.45;1.95;;;36.00;48.80;;;;;;5093150;28;20487;-76
2023/08/11 12:37:39;;;;;;;2.42;1.92;;;36.60;48.60;;;;;;5091734;28;20059;-75
2023/08/11 12:40:44;;;;;;;4.28;1.98;;;36.90;48.20;;;;;;5090971;28;20051;-71
2023/08/11 12:43:48;;;;;;;3.25;1.80;;;37.10;48.30;;;;;;5090699;28;20051;-73
2023/08/11 12:46:52;;;;;;;5.47;2.17;;;37.00;47.80;;;;;;5090444;28;20047;-74
2023/08/11 12:49:57;;;;;;;5.20;2.08;;;36.00;48.60;;;;;;5088173;28;20062;-74
2023/08/11 12:53:04;;;;;;;4.43;1.85;;;35.20;49.10;;;;;;5090124;28;20043;-74
2023/08/11 12:56:08;;;;;;;2.13;1.55;;;34.60;49.50;;;;;;5090607;28;20055;-74
2023/08/11 12:59:11;;;;;;;3.45;1.92;;;34.20;50.50;;;;;;5090079;28;20066;-72
2023/08/11 13:02:16;;;;;;;3.50;2.10;;;33.90;51.30;;;;;;5091518;28;20051;-73
2023/08/11 13:05:20;;;;;;;3.65;2.00;;;33.70;51.30;;;;;;5091249;28;20043;-73
2023/08/11 13:08:24;;;;;;;3.10;2.08;;;33.60;51.20;;;;;;5090588;28;20043;-72
2023/08/11 13:11:27;;;;;;;7.72;1.98;;;33.40;51.00;;;;;;5089413;28;20043;-72
2023/08/11 13:14:31;;;;;;;2.58;1.90;;;33.30;51.30;;;;;;5089690;28;20059;-74
2023/08/11 13:17:35;;;;;;;5.15;1.80;;;33.20;51.50;;;;;;5089054;28;20119;-77
2023/08/11 13:20:39;;;;;;;2.70;1.80;;;33.10;51.90;;;;;;5090095;28;20412;-71
2023/08/11 13:23:43;;;;;;;6.07;1.92;;;33.10;51.90;;;;;;5090162;28;20455;-73
2023/08/11 13:26:47;;;;;;;2.25;1.50;;;33.10;51.70;;;;;;5047714;28;1226257;-71
2023/08/11 13:29:51;;;;;;;6.20;1.90;;;33.90;51.70;;;;;;5091870;28;20514;-72
2023/08/11 13:32:54;;;;;;;4.72;1.70;;;35.50;50.50;;;;;;5091599;28;20058;-70
2023/08/11 13:35:59;;;;;;;3.65;1.77;;;36.60;49.10;;;;;;5091469;28;20412;-72
2023/08/11 13:39:02;;;;;;;5.32;2.28;;;37.10;48.50;;;;;;5091501;28;20043;-72
2023/08/11 13:42:06;;;;;;;5.68;1.77;;;37.20;48.40;;;;;;5091699;28;20062;-71
2023/08/11 13:45:10;;;;;;;4.88;1.83;;;37.30;48.10;;;;;;5091101;28;20059;-71
2023/08/11 13:48:16;;;;;;;4.93;2.08;;;37.20;48.30;;;;;;5091268;28;20055;-69
2023/08/11 13:51:20;;;;;;;2.60;2.00;;;37.00;48.60;;;;;;5091119;28;20039;-69
2023/08/11 13:54:24;;;;;;;4.60;2.22;;;37.30;48.90;;;;;;5091425;28;20522;-75
2023/08/11 13:57:28;;;;;;;4.38;2.00;;;36.80;49.30;;;;;;5091112;28;20067;-71
2023/08/11 14:00:32;;;;;;;12.90;4.35;;;36.00;49.80;;;;;;5091338;28;20059;-74
2023/08/11 14:03:36;;;;;;;18.38;4.72;;;35.20;60.00;;;;;;5090096;28;20054;-73
2023/08/11 14:06:40;;;;;;;21.67;4.63;;;35.80;59.80;;;;;;5091500;28;20035;-73
2023/08/11 14:09:45;;;;;;;7.28;3.53;;;36.50;57.70;;;;;;5091023;28;20090;-73
2023/08/11 14:12:49;;;;;;;11.73;3.72;;;36.90;57.50;;;;;;5091130;28;20046;-72
2023/08/11 14:15:54;;;;;;;21.42;4.95;;;36.60;57.70;;;;;;5090982;28;20055;-72
2023/08/11 14:18:59;;;;;;;16.05;4.40;;;35.80;59.60;;;;;;5090890;28;20039;-72
2023/08/11 14:22:03;;;;;;;11.80;4.30;;;35.20;60.90;;;;;;5090992;28;20067;-72
2023/08/11 14:25:07;;;;;;;12.98;4.30;;;34.70;62.00;;;;;;5090707;28;20123;-72
2023/08/11 14:28:11;;;;;;;12.90;3.85;;;34.30;62.30;;;;;;5090812;28;20515;-72
2023/08/11 14:31:15;;;;;;;9.18;3.88;;;34.00;62.40;;;;;;5088916;28;20051;-72
2023/08/11 14:34:19;;;;;;;11.45;4.65;;;33.80;62.30;;;;;;5088565;28;20182;-72
2023/08/11 14:37:22;;;;;;;12.40;4.05;;;33.60;62.50;;;;;;5088666;28;20047;-72
2023/08/11 14:40:26;;;;;;;12.80;4.20;;;33.50;62.60;;;;;;5089517;28;20300;-72
2023/08/11 14:43:30;;;;;;;17.20;6.32;;;33.40;62.60;;;;;;5089556;28;20084;-73
2023/08/11 14:46:34;;;;;;;9.35;4.00;;;33.30;63.60;;;;;;5090636;28;20502;-73
2023/08/11 14:49:39;;;;;;;15.10;4.03;;;33.20;63.70;;;;;;5090602;28;20051;-74
2023/08/11 14:52:43;;;;;;;8.60;4.35;;;33.10;64.10;;;;;;5089756;28;20043;-75
2023/08/11 14:55:47;;;;;;;13.68;4.32;;;33.00;64.00;;;;;;5089499;28;20043;-73
2023/08/11 14:58:51;;;;;;;9.73;4.28;;;33.00;63.70;;;;;;5088253;28;20043;-75
2023/08/11 15:01:55;;;;;;;18.25;4.22;;;32.90;63.60;;;;;;5088134;28;20039;-76
2023/08/11 15:04:59;;;;;;;19.80;4.45;;;32.90;64.00;;;;;;5088309;28;20043;-75
2023/08/11 15:08:04;;;;;;;11.40;3.75;;;32.90;64.00;;;;;;5088572;28;20055;-75
2023/08/11 15:11:08;;;;;;;7.80;3.58;;;32.90;63.80;;;;;;5088609;28;20346;-75
2023/08/11 15:14:12;;;;;;;16.80;4.10;;;32.90;63.40;;;;;;5090074;28;20051;-75
2023/08/11 15:17:16;;;;;;;9.60;4.05;;;32.90;63.50;;;;;;5090132;28;20055;-76
2023/08/11 15:20:20;;;;;;;11.55;3.58;;;32.90;63.60;;;;;;5089307;28;20479;-76
2023/08/11 15:23:25;;;;;;;13.18;3.60;;;32.90;63.90;;;;;;5092717;28;20539;-75
2023/08/11 15:26:29;;;;;;;5.72;3.00;;;32.90;63.80;;;;;;5093798;28;20533;-74
2023/08/11 15:29:33;;;;;;;7.10;3.60;;;32.80;63.90;;;;;;5093933;28;20047;-75
2023/08/11 15:32:37;;;;;;;7.47;3.05;;;32.80;64.10;;;;;;5093593;28;20050;-75
2023/08/11 15:35:41;;;;;;;5.10;2.92;;;32.70;65.30;;;;;;5093871;28;20418;-75
2023/08/11 15:38:45;;;;;;;12.48;3.30;;;32.60;65.00;;;;;;5093998;28;20039;-75
2023/08/11 15:41:49;;;;;;;8.45;2.75;;;32.60;65.30;;;;;;5093903;28;20047;-75
2023/08/11 15:44:53;;;;;;;14.55;3.28;;;32.50;65.10;;;;;;5093473;28;20047;-76
2023/08/11 15:47:56;;;;;;;14.90;3.28;;;32.70;65.40;;;;;;5093860;28;20043;-75
2023/08/11 15:51:01;;;;;;;12.43;3.67;;;34.20;63.20;;;;;;5093418;28;20047;-75
2023/08/11 15:54:04;;;;;;;11.55;2.88;;;35.50;61.20;;;;;;5093465;28;20416;-76